createdAt,value
2023-10-23T13:46:20.793Z,4.00
2023-10-23T13:48:49.374Z,3.60
2023-10-23T13:51:17.721Z,2.90
2023-10-23T13:53:46.538Z,3.70
2023-10-23T13:56:14.900Z,5.90
2023-10-23T13:58:44.881Z,3.80
2023-10-23T14:01:13.633Z,5.50
2023-10-23T14:03:42.103Z,6.00
2023-10-23T14:06:10.723Z,5.20
2023-10-23T14:09:42.419Z,3.70
2023-10-23T14:11:57.699Z,4.30
2023-10-23T14:14:15.605Z,4.60
2023-10-23T14:16:44.015Z,5.20
2023-10-23T14:19:18.018Z,3.60
2023-10-23T14:21:51.139Z,4.70
2023-10-23T14:24:21.331Z,6.00
2023-10-23T14:26:49.766Z,4.30
2023-10-23T14:29:18.044Z,3.80
2023-10-23T14:31:46.311Z,4.80
2023-10-23T14:34:15.504Z,6.80
2023-10-23T14:36:43.900Z,3.20
2023-10-23T14:39:12.156Z,4.00
2023-10-23T14:41:40.817Z,5.20
2023-10-23T14:44:09.080Z,5.80
2023-10-23T14:46:37.423Z,4.40
2023-10-23T14:49:05.815Z,5.40
2023-10-23T14:51:34.287Z,4.90
2023-10-23T14:54:02.529Z,3.50
2023-10-23T14:56:31.239Z,7.90
2023-10-23T14:58:59.555Z,5.80
2023-10-23T15:01:28.094Z,3.30
2023-10-23T15:04:01.406Z,6.80
2023-10-23T15:06:30.063Z,4.80
2023-10-23T15:08:59.852Z,4.60
2023-10-23T15:11:28.324Z,5.20
2023-10-23T15:13:56.943Z,3.90
2023-10-23T15:16:25.271Z,4.90
2023-10-23T15:18:54.483Z,4.80
2023-10-23T15:21:22.895Z,5.10
2023-10-23T15:23:51.321Z,6.30
2023-10-23T15:26:19.638Z,4.40
2023-10-23T15:28:48.011Z,12.90
2023-10-23T15:31:16.441Z,5.70
2023-10-23T15:33:44.889Z,6.80
2023-10-23T15:36:13.889Z,9.10
2023-10-23T15:38:42.956Z,11.40
2023-10-23T15:41:15.454Z,9.70
2023-10-23T15:43:47.819Z,12.20
2023-10-23T15:46:17.536Z,7.10
2023-10-23T15:48:46.680Z,11.30
2023-10-23T15:51:16.048Z,13.30
2023-10-23T15:53:44.389Z,17.70
2023-10-23T15:56:12.706Z,14.50
2023-10-23T15:58:41.031Z,12.70
2023-10-23T16:01:10.563Z,16.80
2023-10-23T16:03:39.014Z,17.30
2023-10-23T16:06:09.782Z,17.60
2023-10-23T16:08:39.007Z,15.70
2023-10-23T16:11:08.839Z,13.80
2023-10-23T16:13:38.282Z,16.20
2023-10-23T16:16:14.566Z,13.00
2023-10-23T16:18:46.561Z,16.70
2023-10-23T16:21:18.458Z,15.00
2023-10-23T16:23:46.745Z,17.10
2023-10-23T16:26:15.245Z,17.90
2023-10-23T16:28:43.656Z,14.90
2023-10-23T16:31:16.698Z,19.70
2023-10-23T16:33:45.144Z,17.80
2023-10-23T16:36:13.478Z,18.10
2023-10-23T16:38:41.857Z,17.00
2023-10-23T16:41:10.233Z,15.30
2023-10-23T16:43:41.576Z,17.50
2023-10-23T16:46:13.058Z,12.70
2023-10-23T16:48:43.000Z,22.40
